Time;durP1;ratioP1;P1;durP2;ratioP2;P2;SDS_P1;SDS_P2;PMS_P1;PMS_P2;Temp;Humidity;BMP_temperature;BMP_pressure;BME280_temperature;BME280_humidity;BME280_pressure;Samples;Min_cycle;Max_cycle;Signal;HPM_P1;HPM_P2
2023/06/20 00:00:06;;;;;;;13.55;8.07;;;;;;;17.70;100.00;101343.28;4897567;29;20047;-83
2023/06/20 00:02:52;;;;;;;13.88;8.18;;;;;;;17.65;100.00;101343.63;4884780;29;20507;-83
2023/06/20 00:05:37;;;;;;;13.15;8.57;;;;;;;17.62;100.00;101351.88;4898553;29;20820;-83
2023/06/20 00:08:23;;;;;;;13.65;8.70;;;;;;;17.58;100.00;101341.44;4901701;29;20048;-83
2023/06/20 00:11:11;;;;;;;12.85;8.93;;;;;;;17.52;100.00;101340.03;4902759;29;20047;-83
2023/06/20 00:14:00;;;;;;;15.25;8.07;;;;;;;17.48;100.00;101344.75;4899450;29;20054;-84
2023/06/20 00:16:46;;;;;;;13.30;7.90;;;;;;;17.42;100.00;101342.47;4900179;29;20582;-84
2023/06/20 00:19:31;;;;;;;15.38;8.88;;;;;;;17.37;100.00;101352.63;4887884;29;20072;-84
2023/06/20 00:22:16;;;;;;;12.48;7.93;;;;;;;17.33;100.00;101356.47;4900805;29;20066;-83
2023/06/20 00:25:05;;;;;;;13.40;8.57;;;;;;;17.28;100.00;101350.56;4901730;29;20111;-83
2023/06/20 00:27:51;;;;;;;13.32;8.40;;;;;;;17.26;100.00;101350.66;4890389;29;20879;-83
2023/06/20 00:30:36;;;;;;;14.65;8.02;;;;;;;17.23;100.00;101357.06;4896082;29;20158;-83
2023/06/20 00:33:32;;;;;;;15.32;8.93;;;;;;;17.23;100.00;101354.41;4885790;29;20048;-83
2023/06/20 00:36:25;;;;;;;14.43;8.98;;;;;;;17.26;100.00;101356.00;4902122;29;20091;-83
2023/06/20 00:39:11;;;;;;;13.80;9.55;;;;;;;17.22;100.00;101350.00;4887162;29;20060;-84
2023/06/20 00:41:57;;;;;;;13.88;9.25;;;;;;;17.21;100.00;101350.97;4884951;29;20087;-84
2023/06/20 00:44:43;;;;;;;14.38;9.13;;;;;;;17.18;100.00;101355.66;4885209;29;20055;-84
2023/06/20 00:47:29;;;;;;;13.35;8.18;;;;;;;17.14;100.00;101352.34;4891207;29;20043;-85
2023/06/20 00:50:15;;;;;;;12.95;8.57;;;;;;;17.13;100.00;101339.91;4891605;29;20448;-84
2023/06/20 00:53:21;;;;;;;15.68;8.35;;;;;;;17.12;100.00;101351.59;4904291;29;20059;-84
2023/06/20 00:56:11;;;;;;;13.25;8.20;;;;;;;17.10;100.00;101346.31;4893963;29;20043;-85
2023/06/20 00:58:57;;;;;;;15.45;8.88;;;;;;;17.09;100.00;101346.41;4896307;29;20522;-85
2023/06/20 01:01:43;;;;;;;13.98;9.05;;;;;;;17.07;100.00;101334.97;4905177;29;20277;-86
2023/06/20 01:04:31;;;;;;;14.13;9.68;;;;;;;17.09;100.00;101333.03;4911760;29;20863;-85
2023/06/20 01:07:31;;;;;;;15.88;9.18;;;;;;;17.09;100.00;101325.91;4903565;29;20059;-85
2023/06/20 01:10:44;;;;;;;15.38;9.05;;;;;;;17.04;100.00;101328.00;4918660;29;20407;-83
2023/06/20 01:13:54;;;;;;;16.33;9.35;;;;;;;17.02;100.00;101326.38;4895589;29;20586;-84
2023/06/20 01:16:45;;;;;;;14.98;9.05;;;;;;;16.99;100.00;101324.72;4913679;29;20416;-83
2023/06/20 01:19:48;;;;;;;16.52;9.65;;;;;;;16.97;100.00;101319.50;4903385;29;20075;-82
2023/06/20 01:22:41;;;;;;;16.05;9.05;;;;;;;16.98;100.00;101320.34;4915033;29;20059;-84
2023/06/20 01:25:51;;;;;;;17.08;10.15;;;;;;;17.01;100.00;101320.16;4912633;29;20111;-83
2023/06/20 01:28:58;;;;;;;19.00;9.20;;;;;;;17.05;100.00;101321.69;4911030;29;20527;-84
2023/06/20 01:31:53;;;;;;;15.38;9.10;;;;;;;17.07;100.00;101317.13;4896798;29;20467;-83
2023/06/20 01:34:51;;;;;;;15.20;9.40;;;;;;;17.14;100.00;101328.25;4913345;29;20047;-84
2023/06/20 01:37:40;;;;;;;18.40;10.60;;;;;;;17.17;100.00;101325.38;4898889;29;20162;-83
2023/06/20 01:40:37;;;;;;;19.25;10.75;;;;;;;17.21;100.00;101326.91;4908950;29;20159;-83
2023/06/20 01:43:24;;;;;;;17.25;10.48;;;;;;;17.21;100.00;101324.22;4914634;29;20058;-83
2023/06/20 01:46:09;;;;;;;17.35;10.23;;;;;;;17.23;100.00;101329.47;4898313;29;20060;-85
2023/06/20 01:48:55;;;;;;;17.73;10.98;;;;;;;17.22;100.00;101317.06;4915359;29;20047;-84
2023/06/20 01:51:41;;;;;;;18.52;11.38;;;;;;;17.24;100.00;101317.81;4900505;29;20119;-85
2023/06/20 01:54:29;;;;;;;16.95;10.38;;;;;;;17.25;100.00;101319.53;4909586;29;20048;-84
2023/06/20 01:57:16;;;;;;;15.50;9.80;;;;;;;17.26;100.00;101315.88;4900043;29;20051;-84
2023/06/20 02:00:08;;;;;;;16.17;9.43;;;;;;;17.26;100.00;101307.00;4896523;29;20044;-83
2023/06/20 02:02:59;;;;;;;16.40;10.35;;;;;;;17.27;100.00;101322.09;4899971;29;20056;-83
2023/06/20 02:05:45;;;;;;;17.38;9.95;;;;;;;17.28;100.00;101322.00;4896681;29;20443;-85
2023/06/20 02:08:37;;;;;;;19.02;10.50;;;;;;;17.30;100.00;101325.44;4916044;29;20040;-84
2023/06/20 02:11:23;;;;;;;18.52;10.27;;;;;;;17.29;100.00;101318.38;4905729;29;20059;-84
2023/06/20 02:14:09;;;;;;;17.90;10.70;;;;;;;17.33;100.00;101321.69;4906938;29;20471;-83
2023/06/20 02:17:00;;;;;;;19.42;11.68;;;;;;;17.33;100.00;101311.00;4916463;29;20076;-84
2023/06/20 02:19:48;;;;;;;22.85;12.07;;;;;;;17.33;100.00;101314.50;4904453;29;20059;-83
2023/06/20 02:22:35;;;;;;;19.65;11.38;;;;;;;17.35;100.00;101312.59;4921526;29;20526;-83
2023/06/20 02:25:24;;;;;;;21.05;11.48;;;;;;;17.35;100.00;101314.41;4920524;29;20195;-84
2023/06/20 02:28:12;;;;;;;18.83;11.20;;;;;;;17.31;100.00;101311.09;4901872;29;20055;-83
2023/06/20 02:30:58;;;;;;;19.70;10.38;;;;;;;17.32;100.00;101309.28;4891052;29;20056;-84
2023/06/20 02:33:44;;;;;;;18.75;11.63;;;;;;;17.31;100.00;101307.53;4901912;29;20566;-84
2023/06/20 02:36:31;;;;;;;19.83;11.10;;;;;;;17.30;100.00;101313.84;4899478;29;20558;-85
2023/06/20 02:39:22;;;;;;;19.42;10.38;;;;;;;17.30;100.00;101316.53;4922331;29;20059;-85
2023/06/20 02:42:08;;;;;;;20.50;10.93;;;;;;;17.30;100.00;101322.75;4922899;29;20044;-86
2023/06/20 02:44:53;;;;;;;17.13;9.90;;;;;;;17.28;100.00;101313.13;4886994;29;20054;-84
2023/06/20 02:48:06;;;;;;;19.30;10.57;;;;;;;17.30;100.00;101313.84;4905890;29;20072;-84
2023/06/20 02:51:17;;;;;;;18.05;10.75;;;;;;;17.31;100.00;101312.88;4923645;29;20606;-84
